Time;durP1;ratioP1;P1;durP2;ratioP2;P2;SDS_P1;SDS_P2;PMS_P1;PMS_P2;Temp;Humidity;BMP_temperature;BMP_pressure;BME280_temperature;BME280_humidity;BME280_pressure;Samples;Min_cycle;Max_cycle;Signal;HPM_P1;HPM_P2
2022/04/21 00:00:12;;;;;;;6.85;4.40;;;8.50;94.40;;;;;;5096608;28;20399;-78
2022/04/21 00:02:38;;;;;;;6.97;4.90;;;8.50;94.40;;;;;;5114328;28;20048;-78
2022/04/21 00:05:08;;;;;;;7.32;4.68;;;8.50;94.60;;;;;;5114475;28;20047;-79
2022/04/21 00:07:34;;;;;;;5.87;4.73;;;8.50;94.60;;;;;;5079114;28;20052;-78
2022/04/21 00:10:00;;;;;;;6.25;4.97;;;8.50;94.60;;;;;;5096272;28;20788;-78
2022/04/21 00:12:26;;;;;;;7.82;4.75;;;8.40;94.60;;;;;;5079175;28;20052;-78
2022/04/21 00:14:52;;;;;;;7.32;5.03;;;8.40;94.70;;;;;;5096378;28;20369;-78
2022/04/21 00:17:17;;;;;;;6.50;4.90;;;8.40;94.80;;;;;;5113280;28;20472;-78
2022/04/21 00:19:43;;;;;;;6.90;4.68;;;8.40;95.00;;;;;;5095894;28;20382;-79
2022/04/21 00:24:53;;;;;;;6.63;5.20;;;8.30;95.30;;;;;;5114461;28;20130;-78
2022/04/21 00:27:18;;;;;;;7.18;5.03;;;8.30;95.60;;;;;;5096279;28;20130;-78
2022/04/21 00:29:44;;;;;;;6.43;5.32;;;8.20;95.80;;;;;;5113671;28;20475;-78
2022/04/21 00:32:10;;;;;;;8.98;5.72;;;8.20;96.00;;;;;;5095818;28;20067;-78
2022/04/21 00:34:37;;;;;;;7.55;5.45;;;8.20;96.20;;;;;;5113533;28;20032;-79
2022/04/21 00:37:03;;;;;;;8.63;5.30;;;8.20;96.10;;;;;;5095844;28;20491;-79
2022/04/21 00:39:31;;;;;;;8.52;5.95;;;8.20;96.10;;;;;;5095322;28;20069;-78
2022/04/21 00:42:00;;;;;;;9.13;5.70;;;8.20;96.20;;;;;;5079630;28;20093;-78
2022/04/21 00:44:27;;;;;;;8.23;5.72;;;8.10;96.30;;;;;;5113303;28;20039;-78
2022/04/21 00:46:53;;;;;;;7.80;5.25;;;8.00;96.40;;;;;;5078449;28;20483;-78
2022/04/21 00:49:20;;;;;;;6.95;5.72;;;8.00;96.50;;;;;;5095899;28;20044;-78
2022/04/21 00:51:46;;;;;;;6.90;5.50;;;7.90;96.70;;;;;;5062193;28;20055;-78
2022/04/21 00:54:11;;;;;;;9.77;6.00;;;7.90;96.90;;;;;;5095549;28;20052;-78
2022/04/21 00:56:38;;;;;;;7.78;5.80;;;7.80;97.20;;;;;;5113029;28;20427;-78
2022/04/21 00:59:04;;;;;;;8.52;6.05;;;7.80;97.10;;;;;;5061935;28;20048;-78
2022/04/21 01:04:14;;;;;;;8.02;5.82;;;7.70;97.30;;;;;;5095491;28;20055;-78
2022/04/21 01:06:40;;;;;;;7.55;5.72;;;7.60;97.40;;;;;;5112945;28;20039;-78
2022/04/21 01:09:05;;;;;;;6.68;5.65;;;7.60;97.60;;;;;;5094835;28;20051;-78
2022/04/21 01:11:31;;;;;;;8.30;6.10;;;7.50;97.70;;;;;;5094514;28;20055;-78
2022/04/21 01:13:57;;;;;;;8.73;6.00;;;7.50;97.90;;;;;;5078369;28;20043;-78
2022/04/21 01:16:22;;;;;;;8.18;6.22;;;7.40;98.00;;;;;;5094924;28;20044;-78
2022/04/21 01:18:48;;;;;;;7.07;5.90;;;7.40;98.20;;;;;;5111950;28;20161;-78
2022/04/21 01:21:13;;;;;;;8.98;6.47;;;7.30;98.30;;;;;;5094873;28;20040;-78
2022/04/21 01:23:39;;;;;;;8.75;6.38;;;7.30;98.40;;;;;;5112629;28;20043;-78
2022/04/21 01:26:05;;;;;;;9.27;6.25;;;7.30;98.50;;;;;;5113063;28;20039;-78
2022/04/21 01:28:30;;;;;;;12.73;6.68;;;7.30;98.70;;;;;;5061322;28;20048;-78
2022/04/21 01:30:56;;;;;;;11.25;6.60;;;7.30;98.80;;;;;;5094624;28;20105;-78
2022/04/21 01:33:22;;;;;;;13.48;7.43;;;7.30;98.90;;;;;;5077970;28;20105;-78
2022/04/21 01:35:48;;;;;;;9.95;6.70;;;7.30;99.00;;;;;;5112629;28;20047;-78
2022/04/21 01:41:10;;;;;;;8.38;6.85;;;7.20;99.20;;;;;;5097713;28;20108;-78
2022/04/21 01:43:36;;;;;;;12.82;6.68;;;7.20;99.30;;;;;;5112658;28;20043;-78
2022/04/21 01:46:02;;;;;;;7.93;6.43;;;7.10;99.40;;;;;;5077896;28;20070;-78
2022/04/21 01:48:28;;;;;;;10.13;6.88;;;7.10;99.50;;;;;;5078244;28;20040;-78
2022/04/21 01:50:53;;;;;;;11.13;6.85;;;7.10;99.60;;;;;;5094406;28;20073;-78
2022/04/21 01:53:19;;;;;;;7.95;6.68;;;7.00;99.70;;;;;;5094946;28;20044;-78
2022/04/21 01:55:46;;;;;;;12.60;7.75;;;7.00;99.90;;;;;;5094304;28;20047;-78
2022/04/21 01:58:12;;;;;;;9.20;7.55;;;7.00;99.90;;;;;;5094982;28;20051;-78
2022/04/21 02:00:38;;;;;;;10.35;7.95;;;7.00;99.90;;;;;;5094391;28;20047;-78
2022/04/21 02:03:04;;;;;;;12.80;8.00;;;6.90;99.90;;;;;;5078094;28;20140;-78
2022/04/21 02:05:29;;;;;;;11.27;8.23;;;6.90;99.90;;;;;;5094687;28;20044;-78
2022/04/21 02:07:55;;;;;;;11.20;8.25;;;6.90;99.90;;;;;;5111121;28;20474;-78
2022/04/21 02:10:21;;;;;;;15.98;9.48;;;6.90;99.90;;;;;;5094334;28;20048;-77
2022/04/21 02:12:47;;;;;;;13.25;9.15;;;7.00;99.90;;;;;;5094451;28;20073;-78
2022/04/21 02:15:13;;;;;;;11.15;9.00;;;7.00;99.90;;;;;;5112660;28;20464;-78
2022/04/21 02:17:39;;;;;;;12.27;10.05;;;7.10;99.90;;;;;;5077491;28;20467;-78
2022/04/21 02:20:06;;;;;;;11.43;9.48;;;7.10;99.90;;;;;;5094644;28;20081;-78
2022/04/21 02:22:34;;;;;;;14.20;9.35;;;7.20;99.90;;;;;;5077763;28;20048;-78
2022/04/21 02:25:03;;;;;;;17.77;10.20;;;7.20;99.90;;;;;;5077400;28;20058;-78
2022/04/21 02:27:29;;;;;;;15.45;10.30;;;7.20;99.90;;;;;;5094894;28;20048;-78
2022/04/21 02:29:54;;;;;;;13.85;10.02;;;7.20;99.90;;;;;;5113132;28;20364;-78
2022/04/21 02:32:21;;;;;;;14.75;9.98;;;7.20;99.90;;;;;;5098456;28;20050;-78
2022/04/21 02:34:47;;;;;;;12.95;9.43;;;7.30;99.90;;;;;;5097774;28;20100;-78
2022/04/21 02:37:12;;;;;;;11.10;9.38;;;7.20;99.90;;;;;;5081431;28;20048;-78
2022/04/21 02:39:38;;;;;;;13.02;9.63;;;7.10;99.90;;;;;;5116234;28;20051;-78
2022/04/21 02:42:04;;;;;;;14.60;9.80;;;7.10;99.90;;;;;;5114584;28;20088;-78
2022/04/21 02:44:31;;;;;;;15.07;9.85;;;7.10;99.90;;;;;;5098136;28;20086;-78
2022/04/21 02:46:58;;;;;;;13.13;9.50;;;7.10;99.90;;;;;;5097831;28;20498;-78
2022/04/21 02:49:23;;;;;;;13.65;11.10;;;7.10;99.90;;;;;;5081354;28;20044;-78
2022/04/21 02:51:49;;;;;;;15.43;9.90;;;7.10;99.90;;;;;;5115606;28;20540;-78
2022/04/21 02:57:32;;;;;;;13.50;9.35;;;7.00;99.90;;;;;;5069089;28;20059;-78
2022/04/21 02:59:55;;;;;;;12.50;10.00;;;6.90;99.90;;;;;;5097939;28;20047;-78
2022/04/21 03:02:21;;;;;;;13.00;10.07;;;6.80;99.90;;;;;;5097764;28;20400;-78
2022/04/21 03:04:46;;;;;;;12.32;10.15;;;6.80;99.90;;;;;;5080407;28;20092;-78
2022/04/21 03:07:13;;;;;;;12.70;10.02;;;6.80;99.90;;;;;;5097343;28;20075;-78
2022/04/21 03:09:39;;;;;;;12.57;10.55;;;6.80;99.90;;;;;;5115583;28;20035;-78
2022/04/21 03:12:06;;;;;;;14.02;10.88;;;6.80;99.90;;;;;;5114796;28;20051;-78
2022/04/21 03:14:33;;;;;;;15.48;10.02;;;6.70;99.90;;;;;;5080449;28;20130;-78
2022/04/21 03:16:59;;;;;;;13.57;10.20;;;6.80;99.90;;;;;;5080244;28;20430;-78
2022/04/21 03:19:25;;;;;;;12.15;10.45;;;6.60;99.90;;;;;;5115369;28;20123;-78
2022/04/21 03:24:35;;;;;;;15.38;11.10;;;6.60;99.90;;;;;;5115353;28;20101;-78
2022/04/21 03:27:02;;;;;;;15.85;11.35;;;6.60;99.90;;;;;;5096722;28;20051;-78
2022/04/21 03:29:28;;;;;;;14.45;11.02;;;6.50;99.90;;;;;;5064159;28;20047;-78
2022/04/21 03:31:54;;;;;;;15.20;10.73;;;6.40;99.90;;;;;;5063125;28;20055;-78
2022/04/21 03:34:19;;;;;;;16.23;11.95;;;6.40;99.90;;;;;;5115197;28;20031;-78
2022/04/21 03:36:49;;;;;;;14.77;11.35;;;6.40;99.90;;;;;;5096915;28;20043;-78
2022/04/21 03:39:15;;;;;;;13.85;11.07;;;6.40;99.90;;;;;;5080688;28;20062;-78
2022/04/21 03:41:41;;;;;;;15.60;12.32;;;6.40;99.90;;;;;;5114090;28;20047;-78
2022/04/21 03:44:07;;;;;;;15.30;12.50;;;6.30;99.90;;;;;;5096212;28;20143;-78
2022/04/21 03:46:33;;;;;;;15.05;12.00;;;6.40;99.90;;;;;;5079985;28;20049;-77
2022/04/21 03:48:59;;;;;;;12.48;11.00;;;6.40;99.90;;;;;;5096150;28;20050;-78
2022/04/21 03:51:26;;;;;;;15.80;11.25;;;6.40;99.90;;;;;;5079873;28;20040;-78
2022/04/21 03:53:52;;;;;;;13.90;11.68;;;6.30;99.90;;;;;;5114340;28;20047;-78
2022/04/21 03:56:17;;;;;;;14.82;11.85;;;6.30;99.90;;;;;;5115086;28;20070;-82
2022/04/21 03:58:43;;;;;;;14.82;11.65;;;6.40;99.90;;;;;;5079912;28;20128;-78
2022/04/21 04:01:09;;;;;;;14.07;10.63;;;6.30;99.90;;;;;;5114290;28;20044;-80
2022/04/21 04:03:34;;;;;;;13.77;10.90;;;6.30;99.90;;;;;;5096457;28;20047;-79
2022/04/21 04:06:00;;;;;;;14.55;10.63;;;6.30;99.90;;;;;;5114131;28;20048;-79
2022/04/21 04:11:10;;;;;;;15.18;11.05;;;6.30;99.90;;;;;;5113715;28;20058;-81
2022/04/21 04:13:36;;;;;;;14.40;11.68;;;6.20;99.90;;;;;;5096382;28;20396;-81
2022/04/21 04:16:01;;;;;;;15.57;11.85;;;6.30;99.90;;;;;;5095909;28;20442;-81
2022/04/21 04:18:28;;;;;;;15.30;11.23;;;6.20;99.90;;;;;;5079624;28;20047;-83
2022/04/21 04:20:54;;;;;;;15.23;10.93;;;6.20;99.90;;;;;;5079309;28;20423;-83
2022/04/21 04:23:20;;;;;;;15.80;11.00;;;6.20;99.90;;;;;;5114307;28;20039;-82
2022/04/21 04:25:46;;;;;;;13.57;10.57;;;6.20;99.90;;;;;;5079448;28;20396;-82
2022/04/21 04:28:12;;;;;;;16.80;11.68;;;6.20;99.90;;;;;;5095472;28;20043;-79
2022/04/21 04:30:40;;;;;;;12.68;10.98;;;6.20;99.90;;;;;;5114211;28;20047;-83
2022/04/21 04:33:06;;;;;;;15.48;10.63;;;6.20;99.90;;;;;;5095968;28;20135;-82
2022/04/21 04:35:32;;;;;;;13.32;11.02;;;6.20;99.90;;;;;;5095875;28;20051;-83
2022/04/21 04:37:58;;;;;;;12.60;10.30;;;6.20;99.90;;;;;;5078640;28;20480;-81
2022/04/21 04:40:25;;;;;;;13.02;10.73;;;6.20;99.90;;;;;;5078948;28;20057;-82
2022/04/21 04:42:53;;;;;;;13.82;10.73;;;6.20;99.90;;;;;;5079584;28;20062;-80
2022/04/21 04:48:03;;;;;;;12.20;10.90;;;6.20;99.90;;;;;;5081340;28;20134;-82
2022/04/21 04:50:29;;;;;;;13.93;10.13;;;6.10;99.90;;;;;;5114134;28;20123;-82
2022/04/21 04:53:01;;;;;;;14.15;10.07;;;6.20;99.90;;;;;;5113690;28;20055;-82
2022/04/21 04:55:27;;;;;;;12.02;9.98;;;6.20;99.90;;;;;;5078946;28;20047;-81
2022/04/21 04:57:52;;;;;;;12.20;10.23;;;6.20;99.90;;;;;;5078883;28;20051;-81
2022/04/21 05:00:18;;;;;;;13.70;10.00;;;6.30;99.90;;;;;;5078586;28;20040;-82
2022/04/21 05:02:44;;;;;;;13.85;9.90;;;6.20;99.90;;;;;;5095520;28;20047;-80
2022/04/21 05:05:11;;;;;;;12.75;9.82;;;6.30;99.90;;;;;;5078218;28;20043;-83
2022/04/21 05:07:39;;;;;;;12.00;9.60;;;6.30;99.90;;;;;;5078928;28;20154;-81
2022/04/21 05:10:08;;;;;;;13.98;10.07;;;6.30;99.90;;;;;;5078175;28;20054;-82
2022/04/21 05:12:34;;;;;;;13.23;9.43;;;6.30;99.90;;;;;;5095399;28;20051;-82
2022/04/21 05:15:00;;;;;;;12.48;9.43;;;6.40;99.90;;;;;;5078230;28;20082;-80
2022/04/21 05:17:26;;;;;;;12.98;9.32;;;6.40;99.90;;;;;;5078741;28;20528;-81
2022/04/21 05:19:55;;;;;;;10.82;8.77;;;6.40;99.90;;;;;;5061886;28;20533;-83
2022/04/21 05:22:25;;;;;;;13.52;9.95;;;6.50;99.90;;;;;;5078844;28;20043;-82
2022/04/21 05:24:52;;;;;;;13.68;9.43;;;6.50;99.90;;;;;;5078897;28;20126;-82
2022/04/21 05:27:18;;;;;;;13.20;9.77;;;6.50;99.90;;;;;;5078099;28;20047;-82
2022/04/21 05:32:31;;;;;;;12.18;9.55;;;6.60;99.90;;;;;;5113239;28;20051;-80
2022/04/21 05:34:57;;;;;;;11.13;9.63;;;6.60;99.90;;;;;;5113045;28;20040;-80
2022/04/21 05:37:23;;;;;;;14.90;10.38;;;6.60;99.90;;;;;;5112741;28;20054;-82
2022/04/21 05:39:49;;;;;;;11.23;9.13;;;6.70;99.90;;;;;;5094878;28;20044;-82
2022/04/21 05:42:22;;;;;;;14.38;9.20;;;6.70;99.90;;;;;;5111377;28;20047;-79
2022/04/21 05:44:52;;;;;;;12.10;9.20;;;6.80;99.90;;;;;;5078679;28;20435;-81
2022/04/21 05:47:18;;;;;;;11.68;9.02;;;6.80;99.90;;;;;;5095180;28;20051;-81
2022/04/21 05:49:44;;;;;;;11.35;8.68;;;6.90;99.90;;;;;;5112918;28;20047;-82
2022/04/21 05:52:10;;;;;;;12.18;9.23;;;6.90;99.90;;;;;;5077769;28;20047;-81
2022/04/21 05:54:36;;;;;;;10.77;9.07;;;7.00;99.90;;;;;;5077691;28;20050;-82
2022/04/21 05:57:02;;;;;;;12.65;8.82;;;7.00;99.90;;;;;;5078278;28;20044;-82
2022/04/21 05:59:28;;;;;;;14.13;9.20;;;7.00;99.90;;;;;;5077760;28;20445;-81
2022/04/21 06:01:53;;;;;;;11.68;8.70;;;7.10;99.90;;;;;;5094773;28;20055;-82
2022/04/21 06:04:22;;;;;;;10.68;8.88;;;7.10;99.90;;;;;;5094619;28;20040;-80
2022/04/21 06:06:48;;;;;;;9.93;8.07;;;7.20;99.90;;;;;;5116946;28;20122;-81
2022/04/21 06:09:14;;;;;;;12.55;8.77;;;7.20;99.90;;;;;;5116490;28;20551;-82
2022/04/21 06:11:39;;;;;;;10.75;8.77;;;7.30;99.90;;;;;;5116334;28;20058;-79
2022/04/21 06:14:05;;;;;;;10.48;9.00;;;7.30;99.90;;;;;;5081632;28;20070;-81
2022/04/21 06:16:30;;;;;;;11.52;8.85;;;7.30;99.90;;;;;;5116475;28;20050;-80
2022/04/21 06:18:56;;;;;;;13.25;9.20;;;7.40;99.90;;;;;;5081841;28;20058;-80
2022/04/21 06:21:22;;;;;;;12.27;8.85;;;7.50;99.90;;;;;;5116404;28;20053;-81
2022/04/21 06:23:47;;;;;;;12.95;8.52;;;7.50;99.90;;;;;;5098456;28;20062;-79
2022/04/21 06:26:13;;;;;;;13.85;8.80;;;7.50;99.90;;;;;;5115758;28;20047;-82
2022/04/21 06:28:41;;;;;;;10.02;8.63;;;7.60;99.90;;;;;;5098733;28;20491;-79
2022/04/21 06:31:07;;;;;;;11.00;8.02;;;7.50;99.90;;;;;;5098744;28;20055;-81
2022/04/21 06:33:33;;;;;;;9.63;7.72;;;7.60;99.90;;;;;;5081052;28;20395;-81
2022/04/21 06:35:59;;;;;;;12.23;7.78;;;7.70;99.90;;;;;;5098347;28;20040;-82
2022/04/21 06:38:25;;;;;;;10.52;7.25;;;7.70;99.90;;;;;;5064408;28;20444;-82
2022/04/21 06:40:51;;;;;;;9.07;6.85;;;7.80;99.90;;;;;;5081413;28;20158;-81
2022/04/21 06:48:47;;;;;;;8.23;6.53;;;7.90;99.90;;;;;;5100806;28;20043;-81
2022/04/21 06:51:15;;;;;;;8.52;6.45;;;8.00;99.90;;;;;;5097693;28;20052;-80
2022/04/21 06:53:42;;;;;;;9.38;6.60;;;8.10;99.90;;;;;;5081140;28;20051;-81
2022/04/21 06:56:08;;;;;;;6.20;5.60;;;8.10;99.90;;;;;;5097640;28;20480;-82
2022/04/21 06:58:34;;;;;;;8.57;6.15;;;8.20;99.90;;;;;;5080452;28;20056;-80
2022/04/21 07:01:00;;;;;;;8.68;5.65;;;8.30;99.90;;;;;;5064438;28;20090;-82
2022/04/21 07:03:27;;;;;;;7.05;5.60;;;8.30;99.90;;;;;;5080838;28;20160;-81
2022/04/21 07:05:55;;;;;;;6.28;5.38;;;8.30;99.90;;;;;;5097640;28;20560;-82
2022/04/21 07:08:24;;;;;;;8.30;5.13;;;8.40;99.90;;;;;;5097780;28;20040;-81
2022/04/21 07:10:49;;;;;;;9.85;4.88;;;8.50;99.90;;;;;;5077443;28;20393;-81
2022/04/21 07:13:15;;;;;;;6.32;4.75;;;8.60;99.10;;;;;;5093759;28;20058;-81
2022/04/21 07:15:40;;;;;;;5.32;4.78;;;8.60;98.70;;;;;;5093472;28;20044;-82
2022/04/21 07:18:07;;;;;;;10.23;4.68;;;8.70;98.40;;;;;;5093487;28;20048;-80
2022/04/21 07:20:33;;;;;;;7.95;4.32;;;8.70;98.30;;;;;;5093814;28;20056;-78
2022/04/21 07:22:58;;;;;;;6.40;4.18;;;8.80;97.90;;;;;;5095088;28;20441;-82
2022/04/21 07:25:24;;;;;;;6.72;4.43;;;8.90;97.70;;;;;;5094637;28;20040;-81
2022/04/21 07:27:49;;;;;;;6.60;4.38;;;9.00;97.20;;;;;;5094059;28;20048;-81
2022/04/21 07:30:15;;;;;;;5.15;4.13;;;9.10;96.80;;;;;;5094911;28;20089;-82
2022/04/21 07:32:43;;;;;;;5.60;4.03;;;9.20;96.40;;;;;;5093823;28;20073;-80
2022/04/21 07:35:09;;;;;;;5.00;3.92;;;9.30;96.10;;;;;;5093783;28;20044;-83
2022/04/21 07:37:37;;;;;;;8.60;4.10;;;9.30;95.70;;;;;;5093243;28;20036;-81
2022/04/21 07:40:04;;;;;;;5.47;3.85;;;9.40;95.30;;;;;;5094745;28;20044;-81
2022/04/21 07:42:30;;;;;;;5.32;3.47;;;9.50;95.10;;;;;;5093215;28;20051;-81
2022/04/21 07:44:57;;;;;;;3.70;3.20;;;9.60;95.20;;;;;;5094095;28;20044;-81
2022/04/21 07:47:23;;;;;;;4.55;3.30;;;9.80;94.60;;;;;;5093163;28;20135;-82
2022/04/21 07:49:49;;;;;;;5.82;2.78;;;9.80;94.50;;;;;;5093479;28;20150;-81
2022/04/21 07:55:17;;;;;;;3.70;2.80;;;10.10;92.80;;;;;;5093326;28;20101;-79
2022/04/21 07:57:43;;;;;;;3.47;2.60;;;10.30;92.30;;;;;;5076455;28;20048;-85
2022/04/21 08:00:10;;;;;;;5.43;2.50;;;10.40;91.70;;;;;;5060240;28;20090;-81
2022/04/21 08:02:38;;;;;;;2.95;2.40;;;10.50;91.20;;;;;;5092836;28;20063;-78
2022/04/21 08:05:04;;;;;;;5.22;2.03;;;10.60;90.30;;;;;;5093196;28;20088;-80
2022/04/21 08:07:30;;;;;;;3.10;2.35;;;10.80;89.60;;;;;;5093744;28;20513;-79
2022/04/21 08:09:56;;;;;;;3.95;2.05;;;10.90;89.10;;;;;;5095640;28;20052;-80
2022/04/21 08:12:22;;;;;;;2.60;2.30;;;11.00;86.60;;;;;;5095920;28;20051;-78
2022/04/21 08:14:47;;;;;;;3.28;2.13;;;11.20;85.60;;;;;;5114593;28;20040;-80
2022/04/21 08:17:13;;;;;;;4.28;2.20;;;11.20;84.80;;;;;;5096453;28;20050;-80
2022/04/21 08:19:38;;;;;;;3.47;2.17;;;11.30;84.50;;;;;;5114065;28;20035;-78
2022/04/21 08:22:04;;;;;;;3.38;2.10;;;11.40;82.40;;;;;;5114413;28;20048;-78
2022/04/21 08:32:45;;;;;;;4.32;2.50;;;11.70;79.20;;;;;;5098536;28;20399;-77
2022/04/21 08:35:13;;;;;;;3.78;2.30;;;11.70;77.60;;;;;;5096286;28;20059;-77
2022/04/21 08:37:44;;;;;;;4.20;2.58;;;11.70;77.20;;;;;;5095866;28;20048;-78
2022/04/21 08:40:10;;;;;;;4.40;2.53;;;11.70;77.80;;;;;;5096308;28;20044;-80
2022/04/21 08:42:40;;;;;;;4.22;2.78;;;11.80;77.40;;;;;;5078861;28;20047;-78
2022/04/21 08:45:07;;;;;;;3.47;2.92;;;11.70;78.00;;;;;;5078986;28;20032;-78
2022/04/21 08:47:33;;;;;;;3.28;2.97;;;11.80;77.60;;;;;;5078772;28;20040;-78
2022/04/21 08:50:06;;;;;;;4.18;3.00;;;11.80;77.60;;;;;;5114446;28;20093;-77
2022/04/21 08:52:35;;;;;;;5.65;2.88;;;11.80;77.30;;;;;;5113471;28;20083;-78
2022/04/21 08:55:04;;;;;;;4.13;2.70;;;11.80;78.00;;;;;;5112732;28;20482;-77
2022/04/21 08:57:35;;;;;;;3.92;3.00;;;11.90;78.30;;;;;;5078457;28;20148;-76
2022/04/21 09:00:01;;;;;;;;;;;11.80;79.30;;;;;;5096827;28;20040;-76
2022/04/21 09:02:40;;;;;;;3.90;2.67;;;11.90;78.60;;;;;;5113718;28;20275;-76
2022/04/21 09:05:06;;;;;;;5.05;3.42;;;12.00;79.30;;;;;;5113518;28;20040;-76
2022/04/21 09:07:42;;;;;;;4.85;2.92;;;12.00;80.00;;;;;;5078172;28;20043;-78
2022/04/21 09:10:11;;;;;;;5.03;3.47;;;12.00;80.40;;;;;;5113321;28;20061;-77
2022/04/21 09:12:46;;;;;;;3.90;3.13;;;12.10;79.10;;;;;;5113067;28;20130;-82
2022/04/21 09:15:14;;;;;;;4.72;3.20;;;12.20;78.70;;;;;;5063897;28;20048;-82
2022/04/21 09:17:47;;;;;;;5.68;3.28;;;12.10;78.40;;;;;;5095090;28;20043;-82
2022/04/21 09:20:15;;;;;;;3.97;2.90;;;12.20;76.90;;;;;;5095500;28;20055;-82
2022/04/21 09:22:43;;;;;;;3.13;2.65;;;12.20;77.90;;;;;;5095380;28;20039;-82
2022/04/21 09:25:09;;;;;;;5.00;2.95;;;12.30;78.10;;;;;;5061961;28;20066;-85
2022/04/21 09:27:43;;;;;;;4.40;2.88;;;12.30;78.00;;;;;;5061705;28;20391;-79
2022/04/21 09:30:15;;;;;;;3.80;3.25;;;12.40;78.60;;;;;;5095288;28;20047;-78
2022/04/21 09:32:41;;;;;;;5.07;3.42;;;12.50;78.40;;;;;;5113043;28;20113;-79
2022/04/21 09:35:08;;;;;;;7.55;3.10;;;12.50;77.60;;;;;;5094975;28;20079;-79
2022/04/21 09:37:48;;;;;;;6.55;3.72;;;12.50;78.20;;;;;;5077792;28;20051;-78
2022/04/21 09:40:15;;;;;;;6.70;3.47;;;12.60;77.50;;;;;;5077394;28;20053;-77
2022/04/21 09:42:41;;;;;;;9.52;2.90;;;12.60;77.90;;;;;;5077782;28;20391;-78
2022/04/21 09:47:54;;;;;;;5.13;3.22;;;12.80;77.50;;;;;;5094320;28;20081;-77
2022/04/21 09:50:20;;;;;;;4.00;3.60;;;12.90;78.20;;;;;;5094818;28;20119;-77
2022/04/21 09:52:49;;;;;;;3.70;3.40;;;12.90;77.70;;;;;;5077151;28;20047;-79
2022/04/21 09:55:27;;;;;;;3.65;3.15;;;13.00;77.50;;;;;;5078404;28;20047;-78
2022/04/21 09:58:04;;;;;;;4.18;3.72;;;13.10;77.30;;;;;;5112455;28;20127;-78
2022/04/21 10:00:30;;;;;;;7.95;3.60;;;13.10;77.00;;;;;;5112825;28;20043;-78
2022/04/21 10:02:55;;;;;;;4.65;3.47;;;13.10;76.70;;;;;;5094406;28;20348;-78
2022/04/21 10:05:21;;;;;;;4.80;3.38;;;13.20;76.30;;;;;;5077971;28;20032;-75
2022/04/21 10:07:46;;;;;;;3.90;3.28;;;13.20;76.10;;;;;;5112345;28;20039;-75
2022/04/21 10:10:12;;;;;;;5.80;3.50;;;13.20;76.50;;;;;;5061279;28;20070;-76
2022/04/21 10:12:39;;;;;;;4.45;3.30;;;13.30;75.80;;;;;;5094229;28;20055;-76
2022/04/21 10:15:05;;;;;;;5.15;3.53;;;13.20;75.80;;;;;;5077969;28;20082;-76
2022/04/21 10:17:30;;;;;;;3.85;3.50;;;13.30;75.40;;;;;;5077784;28;20079;-76
2022/04/21 10:19:56;;;;;;;5.55;4.03;;;13.40;75.70;;;;;;5094438;28;20422;-76
2022/04/21 10:22:22;;;;;;;5.57;3.47;;;13.40;75.60;;;;;;5077924;28;20365;-76
2022/04/21 10:24:48;;;;;;;6.13;3.30;;;13.50;75.70;;;;;;5094062;28;20031;-76
2022/04/21 10:27:36;;;;;;;6.22;3.33;;;13.50;75.60;;;;;;5111532;28;20048;-76
2022/04/21 10:30:09;;;;;;;5.50;3.00;;;13.60;73.30;;;;;;5093922;28;20399;-77
2022/04/21 10:32:51;;;;;;;4.85;2.60;;;13.50;75.00;;;;;;5112531;28;20059;-76
2022/04/21 10:35:23;;;;;;;4.47;3.38;;;13.70;72.60;;;;;;5112603;28;20464;-76
2022/04/21 10:38:08;;;;;;;5.55;3.47;;;13.70;73.70;;;;;;5112168;28;20048;-75
2022/04/21 10:40:34;;;;;;;3.50;3.20;;;13.70;73.00;;;;;;5097408;28;20092;-75
2022/04/21 10:43:03;;;;;;;4.30;3.08;;;13.80;72.10;;;;;;5076904;28;20484;-76
2022/04/21 10:45:32;;;;;;;4.20;3.00;;;13.80;71.40;;;;;;5112394;28;20075;-76
2022/04/21 10:48:12;;;;;;;4.13;2.88;;;13.90;71.70;;;;;;5094028;28;20090;-76
2022/04/21 10:50:45;;;;;;;3.45;3.15;;;13.90;70.40;;;;;;5095309;28;20101;-76
2022/04/21 10:58:42;;;;;;;3.90;2.80;;;14.10;69.90;;;;;;5083661;28;20575;-76
2022/04/21 11:01:12;;;;;;;3.30;3.00;;;14.10;70.50;;;;;;5098010;28;20555;-76
2022/04/21 11:03:38;;;;;;;3.60;3.00;;;14.20;69.30;;;;;;5097773;28;20055;-76
2022/04/21 11:06:08;;;;;;;5.05;3.17;;;14.30;68.80;;;;;;5080494;28;20044;-76
2022/04/21 11:08:33;;;;;;;3.63;2.95;;;14.30;68.50;;;;;;5048008;28;20058;-76
2022/04/21 11:10:59;;;;;;;3.85;2.90;;;14.40;68.40;;;;;;5096782;28;20040;-76
2022/04/21 11:13:50;;;;;;;3.45;3.05;;;14.40;68.90;;;;;;5080803;28;20043;-76
2022/04/21 11:16:45;;;;;;;4.53;2.83;;;14.40;67.40;;;;;;5115741;28;20083;-76
2022/04/21 11:19:29;;;;;;;3.95;2.97;;;14.50;67.20;;;;;;5115659;28;20414;-76
2022/04/21 11:22:03;;;;;;;3.85;2.80;;;14.40;68.10;;;;;;5097241;28;20044;-76
2022/04/21 11:24:48;;;;;;;3.95;2.60;;;14.50;68.60;;;;;;5080765;28;20052;-76
2022/04/21 11:27:14;;;;;;;3.33;2.90;;;14.50;67.90;;;;;;5096942;28;20077;-76
2022/04/21 11:29:39;;;;;;;5.35;2.88;;;14.60;67.40;;;;;;5080538;28;20044;-76
2022/04/21 11:32:05;;;;;;;4.45;2.75;;;14.60;66.70;;;;;;5096745;28;20476;-76
2022/04/21 11:34:33;;;;;;;4.65;2.78;;;14.70;65.60;;;;;;5115302;28;20032;-76
2022/04/21 11:37:01;;;;;;;3.83;2.60;;;14.70;65.20;;;;;;5114909;28;20459;-76
2022/04/21 11:39:27;;;;;;;3.03;2.55;;;14.70;65.10;;;;;;5097371;28;20387;-76
2022/04/21 11:41:53;;;;;;;5.43;2.78;;;14.80;64.60;;;;;;5114735;28;20050;-76
2022/04/21 11:44:22;;;;;;;6.60;3.30;;;14.80;64.50;;;;;;5115027;28;20117;-76
2022/04/21 11:46:48;;;;;;;5.88;3.10;;;14.90;64.50;;;;;;5097022;28;20108;-76
2022/04/21 11:49:14;;;;;;;5.18;2.88;;;14.90;65.00;;;;;;5096522;28;20039;-76
2022/04/21 11:51:40;;;;;;;5.07;3.00;;;14.90;64.60;;;;;;5115007;28;20050;-76
2022/04/21 11:54:07;;;;;;;3.17;2.72;;;15.00;64.20;;;;;;5096502;28;20143;-76
2022/04/21 11:56:33;;;;;;;4.95;3.05;;;15.10;64.30;;;;;;5080039;28;20063;-75
2022/04/21 11:59:06;;;;;;;4.95;3.10;;;15.10;64.30;;;;;;5114338;28;20047;-76
2022/04/21 12:07:03;;;;;;;4.68;2.90;;;15.10;63.50;;;;;;5114451;28;20048;-76
2022/04/21 12:09:35;;;;;;;4.75;2.78;;;15.10;64.00;;;;;;5080389;28;20043;-76
2022/04/21 12:12:03;;;;;;;5.32;2.60;;;15.10;63.30;;;;;;5080304;28;20055;-76
2022/04/21 12:14:29;;;;;;;3.17;2.53;;;15.00;62.50;;;;;;5079852;28;20039;-76
2022/04/21 12:16:56;;;;;;;5.63;3.15;;;15.00;62.70;;;;;;5062814;28;20369;-76
2022/04/21 12:19:43;;;;;;;4.90;3.38;;;15.10;63.50;;;;;;5114601;28;20430;-76
2022/04/21 12:22:16;;;;;;;4.20;3.38;;;15.10;64.40;;;;;;5096166;28;20422;-76
2022/04/21 12:24:51;;;;;;;3.88;2.88;;;15.20;64.30;;;;;;5096024;28;20510;-76
2022/04/21 12:27:24;;;;;;;4.10;2.78;;;15.30;62.50;;;;;;5095656;28;20388;-76
2022/04/21 12:29:58;;;;;;;3.95;2.83;;;15.30;63.90;;;;;;5114275;28;20054;-76
2022/04/21 12:32:27;;;;;;;5.90;2.97;;;15.30;63.50;;;;;;5096314;28;20040;-76
2022/04/21 12:34:57;;;;;;;3.33;2.97;;;15.30;63.40;;;;;;5079588;28;20411;-76
2022/04/21 12:37:29;;;;;;;3.53;2.88;;;15.40;62.40;;;;;;5080094;28;20048;-76
2022/04/21 12:39:55;;;;;;;3.17;2.85;;;15.40;62.00;;;;;;5113846;28;20110;-76
2022/04/21 12:42:21;;;;;;;3.33;2.75;;;15.40;62.00;;;;;;5095984;28;20043;-76
2022/04/21 12:44:47;;;;;;;4.10;3.13;;;15.40;61.30;;;;;;5113757;28;20372;-76
2022/04/21 12:47:17;;;;;;;5.20;3.13;;;15.40;61.30;;;;;;5095563;28;20093;-76
2022/04/21 12:50:00;;;;;;;3.25;2.75;;;15.40;61.50;;;;;;5079123;28;20052;-76
2022/04/21 12:52:31;;;;;;;4.20;2.90;;;15.40;61.00;;;;;;5079731;28;20127;-76
2022/04/21 12:54:58;;;;;;;4.55;3.00;;;15.40;61.50;;;;;;5095810;28;20130;-76
2022/04/21 12:57:24;;;;;;;5.40;2.90;;;15.40;61.30;;;;;;5113818;28;20366;-76
2022/04/21 12:59:53;;;;;;;3.53;2.95;;;15.50;60.70;;;;;;5095481;28;20047;-77
2022/04/21 13:02:19;;;;;;;4.00;3.03;;;15.50;60.70;;;;;;5078756;28;20090;-76
2022/04/21 13:04:45;;;;;;;3.15;2.60;;;15.50;60.40;;;;;;5095518;28;20109;-76
2022/04/21 13:07:11;;;;;;;2.72;2.20;;;15.50;59.30;;;;;;5095276;28;20454;-76
2022/04/21 13:09:37;;;;;;;3.40;2.90;;;15.50;58.40;;;;;;5078862;28;20083;-76
2022/04/21 13:12:03;;;;;;;3.70;3.35;;;15.60;59.00;;;;;;5094326;28;20055;-76
2022/04/21 13:14:28;;;;;;;3.45;3.15;;;15.60;59.60;;;;;;5078767;28;20083;-76
2022/04/21 13:16:54;;;;;;;4.72;3.17;;;15.50;59.60;;;;;;5113408;28;20503;-76
2022/04/21 13:19:20;;;;;;;4.80;2.67;;;15.50;59.90;;;;;;5113035;28;20409;-75
2022/04/21 13:21:57;;;;;;;5.72;3.47;;;15.50;59.50;;;;;;5095357;28;20047;-76
2022/04/21 13:24:26;;;;;;;5.20;2.85;;;15.50;59.70;;;;;;5094707;28;20043;-76
2022/04/21 13:26:52;;;;;;;3.25;2.65;;;15.50;59.30;;;;;;5113461;28;20044;-76
2022/04/21 13:29:18;;;;;;;3.65;2.95;;;15.60;59.20;;;;;;5078208;28;20051;-76
2022/04/21 13:34:28;;;;;;;5.38;3.60;;;15.70;60.80;;;;;;5098089;28;20533;-76
2022/04/21 13:36:54;;;;;;;4.70;3.95;;;15.70;61.00;;;;;;5113200;28;20047;-76
2022/04/21 13:39:20;;;;;;;4.72;3.80;;;15.70;61.30;;;;;;5044645;28;20051;-76
2022/04/21 13:41:48;;;;;;;6.80;4.03;;;15.70;61.50;;;;;;5078174;28;20122;-76
2022/04/21 13:44:15;;;;;;;6.13;3.63;;;15.70;61.10;;;;;;5112662;28;20085;-76